sensor_id;sensor_type;location;lat;lon;timestamp;P1;durP1;ratioP1;P2;durP2;ratioP2
20739;SDS011;10530;49.968;19.844;2023-06-14T00:01:57;15.30;;;5.13;;
20739;SDS011;10530;49.968;19.844;2023-06-14T00:07:00;13.60;;;5.60;;
20739;SDS011;10530;49.968;19.844;2023-06-14T00:12:04;15.02;;;5.43;;
20739;SDS011;10530;49.968;19.844;2023-06-14T00:17:08;14.43;;;5.67;;
20739;SDS011;10530;49.968;19.844;2023-06-14T00:22:11;15.02;;;5.70;;
20739;SDS011;10530;49.968;19.844;2023-06-14T00:27:15;14.10;;;5.53;;
20739;SDS011;10530;49.968;19.844;2023-06-14T00:32:18;13.55;;;5.07;;
20739;SDS011;10530;49.968;19.844;2023-06-14T00:37:21;16.92;;;5.22;;
20739;SDS011;10530;49.968;19.844;2023-06-14T00:42:24;14.37;;;5.07;;
20739;SDS011;10530;49.968;19.844;2023-06-14T00:47:28;13.10;;;5.22;;
20739;SDS011;10530;49.968;19.844;2023-06-14T00:52:31;13.53;;;5.33;;
20739;SDS011;10530;49.968;19.844;2023-06-14T00:57:34;14.55;;;5.45;;
20739;SDS011;10530;49.968;19.844;2023-06-14T01:02:40;13.25;;;4.93;;
20739;SDS011;10530;49.968;19.844;2023-06-14T01:07:57;11.93;;;5.20;;
20739;SDS011;10530;49.968;19.844;2023-06-14T01:13:13;13.70;;;5.05;;
20739;SDS011;10530;49.968;19.844;2023-06-14T01:18:25;10.63;;;4.80;;
20739;SDS011;10530;49.968;19.844;2023-06-14T01:23:32;16.63;;;5.55;;
20739;SDS011;10530;49.968;19.844;2023-06-14T01:28:35;15.68;;;5.50;;
20739;SDS011;10530;49.968;19.844;2023-06-14T01:33:39;12.63;;;5.30;;
20739;SDS011;10530;49.968;19.844;2023-06-14T01:38:42;13.30;;;5.68;;
20739;SDS011;10530;49.968;19.844;2023-06-14T01:43:46;14.63;;;6.13;;
20739;SDS011;10530;49.968;19.844;2023-06-14T01:48:50;12.45;;;5.05;;
20739;SDS011;10530;49.968;19.844;2023-06-14T01:53:54;11.27;;;5.35;;
20739;SDS011;10530;49.968;19.844;2023-06-14T01:58:57;13.87;;;5.50;;
20739;SDS011;10530;49.968;19.844;2023-06-14T02:04:00;17.75;;;5.45;;
20739;SDS011;10530;49.968;19.844;2023-06-14T02:09:03;16.13;;;5.93;;
20739;SDS011;10530;49.968;19.844;2023-06-14T02:14:06;14.93;;;5.20;;
20739;SDS011;10530;49.968;19.844;2023-06-14T02:19:09;15.50;;;6.13;;
20739;SDS011;10530;49.968;19.844;2023-06-14T02:24:13;18.83;;;6.50;;
20739;SDS011;10530;49.968;19.844;2023-06-14T02:29:16;18.92;;;6.30;;
20739;SDS011;10530;49.968;19.844;2023-06-14T02:34:19;24.90;;;6.90;;
20739;SDS011;10530;49.968;19.844;2023-06-14T02:39:23;18.63;;;7.00;;
20739;SDS011;10530;49.968;19.844;2023-06-14T02:44:26;23.27;;;6.93;;
20739;SDS011;10530;49.968;19.844;2023-06-14T02:49:29;17.50;;;6.40;;
20739;SDS011;10530;49.968;19.844;2023-06-14T02:54:33;21.27;;;6.78;;
20739;SDS011;10530;49.968;19.844;2023-06-14T02:59:36;23.07;;;6.67;;
20739;SDS011;10530;49.968;19.844;2023-06-14T03:04:39;26.05;;;7.70;;
20739;SDS011;10530;49.968;19.844;2023-06-14T03:09:48;15.55;;;6.30;;
20739;SDS011;10530;49.968;19.844;2023-06-14T03:14:52;22.03;;;6.73;;
20739;SDS011;10530;49.968;19.844;2023-06-14T03:19:57;19.75;;;6.80;;
20739;SDS011;10530;49.968;19.844;2023-06-14T03:25:00;20.07;;;7.20;;
20739;SDS011;10530;49.968;19.844;2023-06-14T03:30:06;18.95;;;6.95;;
20739;SDS011;10530;49.968;19.844;2023-06-14T03:35:10;23.23;;;7.22;;
20739;SDS011;10530;49.968;19.844;2023-06-14T03:40:21;18.70;;;7.20;;
20739;SDS011;10530;49.968;19.844;2023-06-14T03:45:28;21.10;;;6.53;;
20739;SDS011;10530;49.968;19.844;2023-06-14T03:50:32;21.00;;;6.60;;
20739;SDS011;10530;49.968;19.844;2023-06-14T03:55:35;30.90;;;7.57;;
20739;SDS011;10530;49.968;19.844;2023-06-14T04:01:01;27.30;;;6.65;;
20739;SDS011;10530;49.968;19.844;2023-06-14T04:06:05;24.30;;;7.13;;
20739;SDS011;10530;49.968;19.844;2023-06-14T04:11:08;26.75;;;7.78;;
20739;SDS011;10530;49.968;19.844;2023-06-14T04:16:11;31.33;;;7.47;;
20739;SDS011;10530;49.968;19.844;2023-06-14T04:21:14;26.00;;;7.28;;
20739;SDS011;10530;49.968;19.844;2023-06-14T04:26:16;28.77;;;6.90;;
20739;SDS011;10530;49.968;19.844;2023-06-14T04:31:25;22.53;;;6.57;;
20739;SDS011;10530;49.968;19.844;2023-06-14T04:36:28;27.08;;;6.85;;
20739;SDS011;10530;49.968;19.844;2023-06-14T04:41:32;26.83;;;7.70;;
20739;SDS011;10530;49.968;19.844;2023-06-14T04:46:36;26.42;;;7.35;;
20739;SDS011;10530;49.968;19.844;2023-06-14T04:51:57;23.05;;;6.60;;
20739;SDS011;10530;49.968;19.844;2023-06-14T04:57:06;26.30;;;7.93;;
20739;SDS011;10530;49.968;19.844;2023-06-14T05:02:09;30.17;;;7.65;;
20739;SDS011;10530;49.968;19.844;2023-06-14T05:07:13;29.97;;;7.00;;
20739;SDS011;10530;49.968;19.844;2023-06-14T05:12:17;32.58;;;8.05;;
20739;SDS011;10530;49.968;19.844;2023-06-14T05:17:23;29.92;;;8.20;;
20739;SDS011;10530;49.968;19.844;2023-06-14T05:22:26;20.60;;;6.63;;
20739;SDS011;10530;49.968;19.844;2023-06-14T05:27:29;25.55;;;7.78;;
20739;SDS011;10530;49.968;19.844;2023-06-14T05:32:32;26.73;;;8.30;;
20739;SDS011;10530;49.968;19.844;2023-06-14T05:37:35;25.73;;;7.78;;
20739;SDS011;10530;49.968;19.844;2023-06-14T05:42:37;25.42;;;7.50;;
20739;SDS011;10530;49.968;19.844;2023-06-14T05:47:40;24.10;;;7.70;;
20739;SDS011;10530;49.968;19.844;2023-06-14T05:52:43;28.60;;;8.63;;
20739;SDS011;10530;49.968;19.844;2023-06-14T05:57:46;24.80;;;9.40;;
20739;SDS011;10530;49.968;19.844;2023-06-14T06:02:50;26.80;;;8.65;;
20739;SDS011;10530;49.968;19.844;2023-06-14T06:07:53;32.35;;;7.78;;
20739;SDS011;10530;49.968;19.844;2023-06-14T06:12:56;24.43;;;7.30;;
20739;SDS011;10530;49.968;19.844;2023-06-14T06:17:58;27.92;;;8.10;;
20739;SDS011;10530;49.968;19.844;2023-06-14T06:23:01;28.53;;;9.47;;
20739;SDS011;10530;49.968;19.844;2023-06-14T06:28:04;33.00;;;9.77;;
20739;SDS011;10530;49.968;19.844;2023-06-14T06:33:08;31.38;;;10.15;;
20739;SDS011;10530;49.968;19.844;2023-06-14T06:38:11;30.23;;;9.03;;
20739;SDS011;10530;49.968;19.844;2023-06-14T06:43:14;30.90;;;9.10;;
20739;SDS011;10530;49.968;19.844;2023-06-14T06:48:21;30.77;;;9.10;;
20739;SDS011;10530;49.968;19.844;2023-06-14T06:53:24;22.20;;;8.63;;
20739;SDS011;10530;49.968;19.844;2023-06-14T06:58:40;23.92;;;8.13;;
20739;SDS011;10530;49.968;19.844;2023-06-14T07:03:44;22.70;;;8.27;;
20739;SDS011;10530;49.968;19.844;2023-06-14T07:08:46;22.77;;;7.75;;
20739;SDS011;10530;49.968;19.844;2023-06-14T07:13:50;22.53;;;8.30;;
20739;SDS011;10530;49.968;19.844;2023-06-14T07:18:53;24.02;;;8.02;;
20739;SDS011;10530;49.968;19.844;2023-06-14T07:23:56;19.98;;;7.03;;
20739;SDS011;10530;49.968;19.844;2023-06-14T07:28:59;22.87;;;7.50;;
20739;SDS011;10530;49.968;19.844;2023-06-14T07:34:02;25.58;;;7.97;;
20739;SDS011;10530;49.968;19.844;2023-06-14T07:39:05;22.47;;;7.63;;
20739;SDS011;10530;49.968;19.844;2023-06-14T07:44:08;21.92;;;6.82;;
20739;SDS011;10530;49.968;19.844;2023-06-14T07:49:12;16.55;;;6.30;;
20739;SDS011;10530;49.968;19.844;2023-06-14T07:54:16;19.93;;;6.40;;
20739;SDS011;10530;49.968;19.844;2023-06-14T07:59:19;18.35;;;7.05;;
20739;SDS011;10530;49.968;19.844;2023-06-14T08:04:22;19.27;;;7.00;;
20739;SDS011;10530;49.968;19.844;2023-06-14T08:09:27;19.30;;;6.93;;
20739;SDS011;10530;49.968;19.844;2023-06-14T08:14:31;16.85;;;5.90;;
20739;SDS011;10530;49.968;19.844;2023-06-14T08:19:34;16.63;;;5.63;;
20739;SDS011;10530;49.968;19.844;2023-06-14T08:24:36;12.55;;;5.05;;
20739;SDS011;10530;49.968;19.844;2023-06-14T08:29:39;16.27;;;5.63;;
20739;SDS011;10530;49.968;19.844;2023-06-14T08:34:43;14.40;;;6.03;;
20739;SDS011;10530;49.968;19.844;2023-06-14T08:40:05;14.80;;;5.88;;
20739;SDS011;10530;49.968;19.844;2023-06-14T08:45:29;16.67;;;6.17;;
20739;SDS011;10530;49.968;19.844;2023-06-14T08:50:33;16.40;;;6.30;;
20739;SDS011;10530;49.968;19.844;2023-06-14T08:55:39;18.73;;;7.07;;
20739;SDS011;10530;49.968;19.844;2023-06-14T09:00:44;19.40;;;7.07;;
20739;SDS011;10530;49.968;19.844;2023-06-14T09:05:48;17.10;;;6.80;;
20739;SDS011;10530;49.968;19.844;2023-06-14T09:10:52;17.00;;;6.97;;
20739;SDS011;10530;49.968;19.844;2023-06-14T09:15:55;18.05;;;6.70;;
20739;SDS011;10530;49.968;19.844;2023-06-14T09:20:58;11.10;;;5.27;;
20739;SDS011;10530;49.968;19.844;2023-06-14T09:26:02;13.10;;;5.45;;
20739;SDS011;10530;49.968;19.844;2023-06-14T09:31:16;11.65;;;4.70;;
20739;SDS011;10530;49.968;19.844;2023-06-14T09:36:21;9.97;;;4.83;;
20739;SDS011;10530;49.968;19.844;2023-06-14T09:41:37;9.95;;;4.57;;
20739;SDS011;10530;49.968;19.844;2023-06-14T09:46:44;10.33;;;4.27;;
20739;SDS011;10530;49.968;19.844;2023-06-14T09:51:49;13.15;;;4.30;;
20739;SDS011;10530;49.968;19.844;2023-06-14T09:56:55;10.52;;;4.07;;
20739;SDS011;10530;49.968;19.844;2023-06-14T10:01:58;7.93;;;3.50;;
20739;SDS011;10530;49.968;19.844;2023-06-14T10:07:07;8.50;;;3.13;;
20739;SDS011;10530;49.968;19.844;2023-06-14T10:12:10;8.23;;;3.50;;
20739;SDS011;10530;49.968;19.844;2023-06-14T10:17:20;9.63;;;3.47;;
20739;SDS011;10530;49.968;19.844;2023-06-14T10:22:36;6.95;;;3.22;;
20739;SDS011;10530;49.968;19.844;2023-06-14T10:27:45;6.60;;;2.90;;
20739;SDS011;10530;49.968;19.844;2023-06-14T10:33:07;7.85;;;3.30;;
20739;SDS011;10530;49.968;19.844;2023-06-14T10:38:11;10.33;;;4.10;;
20739;SDS011;10530;49.968;19.844;2023-06-14T10:43:21;8.70;;;4.00;;
20739;SDS011;10530;49.968;19.844;2023-06-14T10:48:30;8.95;;;4.22;;
20739;SDS011;10530;49.968;19.844;2023-06-14T10:53:40;6.40;;;3.13;;
20739;SDS011;10530;49.968;19.844;2023-06-14T10:58:43;10.45;;;3.90;;
20739;SDS011;10530;49.968;19.844;2023-06-14T11:03:52;8.67;;;3.77;;
20739;SDS011;10530;49.968;19.844;2023-06-14T11:14:07;9.52;;;4.38;;
20739;SDS011;10530;49.968;19.844;2023-06-14T11:19:10;6.90;;;3.37;;
20739;SDS011;10530;49.968;19.844;2023-06-14T11:24:13;6.50;;;2.90;;
20739;SDS011;10530;49.968;19.844;2023-06-14T11:29:16;7.27;;;3.40;;
20739;SDS011;10530;49.968;19.844;2023-06-14T11:34:22;6.55;;;3.00;;
20739;SDS011;10530;49.968;19.844;2023-06-14T11:39:26;7.68;;;3.58;;
20739;SDS011;10530;49.968;19.844;2023-06-14T11:44:29;7.30;;;3.80;;
20739;SDS011;10530;49.968;19.844;2023-06-14T11:49:35;6.43;;;3.35;;
20739;SDS011;10530;49.968;19.844;2023-06-14T11:54:38;6.10;;;2.97;;
20739;SDS011;10530;49.968;19.844;2023-06-14T11:59:44;7.00;;;2.97;;
20739;SDS011;10530;49.968;19.844;2023-06-14T12:04:48;6.82;;;3.30;;
20739;SDS011;10530;49.968;19.844;2023-06-14T12:15:02;7.57;;;3.22;;
20739;SDS011;10530;49.968;19.844;2023-06-14T12:20:10;8.33;;;3.90;;
20739;SDS011;10530;49.968;19.844;2023-06-14T12:25:26;7.50;;;3.85;;
20739;SDS011;10530;49.968;19.844;2023-06-14T12:30:33;6.55;;;3.90;;
20739;SDS011;10530;49.968;19.844;2023-06-14T12:35:37;6.87;;;3.00;;
20739;SDS011;10530;49.968;19.844;2023-06-14T12:40:40;7.40;;;4.15;;
20739;SDS011;10530;49.968;19.844;2023-06-14T12:45:44;7.47;;;3.97;;
20739;SDS011;10530;49.968;19.844;2023-06-14T12:50:47;6.60;;;3.50;;
20739;SDS011;10530;49.968;19.844;2023-06-14T12:55:50;7.45;;;4.10;;
20739;SDS011;10530;49.968;19.844;2023-06-14T13:00:53;6.40;;;3.67;;
20739;SDS011;10530;49.968;19.844;2023-06-14T13:05:55;6.90;;;3.65;;
20739;SDS011;10530;49.968;19.844;2023-06-14T13:10:58;7.00;;;3.67;;
20739;SDS011;10530;49.968;19.844;2023-06-14T13:16:02;5.45;;;2.80;;
20739;SDS011;10530;49.968;19.844;2023-06-14T13:21:05;6.55;;;3.22;;
20739;SDS011;10530;49.968;19.844;2023-06-14T13:26:08;6.10;;;3.03;;
20739;SDS011;10530;49.968;19.844;2023-06-14T13:31:11;6.55;;;3.05;;
20739;SDS011;10530;49.968;19.844;2023-06-14T13:36:14;6.27;;;2.83;;
20739;SDS011;10530;49.968;19.844;2023-06-14T13:41:18;6.53;;;3.08;;
20739;SDS011;10530;49.968;19.844;2023-06-14T13:46:21;6.40;;;2.95;;
20739;SDS011;10530;49.968;19.844;2023-06-14T13:51:24;7.50;;;3.37;;
20739;SDS011;10530;49.968;19.844;2023-06-14T13:56:28;7.38;;;3.25;;
20739;SDS011;10530;49.968;19.844;2023-06-14T14:01:32;5.73;;;3.00;;
20739;SDS011;10530;49.968;19.844;2023-06-14T14:06:34;4.88;;;2.63;;
20739;SDS011;10530;49.968;19.844;2023-06-14T14:11:37;6.35;;;2.80;;
20739;SDS011;10530;49.968;19.844;2023-06-14T14:16:41;8.83;;;3.00;;
20739;SDS011;10530;49.968;19.844;2023-06-14T14:21:44;5.38;;;2.70;;
20739;SDS011;10530;49.968;19.844;2023-06-14T14:26:47;5.67;;;2.80;;
20739;SDS011;10530;49.968;19.844;2023-06-14T14:31:51;6.93;;;2.80;;
20739;SDS011;10530;49.968;19.844;2023-06-14T14:36:54;5.50;;;2.65;;
20739;SDS011;10530;49.968;19.844;2023-06-14T14:41:58;7.00;;;3.13;;
20739;SDS011;10530;49.968;19.844;2023-06-14T14:47:01;5.75;;;2.75;;
20739;SDS011;10530;49.968;19.844;2023-06-14T14:52:05;6.43;;;2.80;;
20739;SDS011;10530;49.968;19.844;2023-06-14T14:57:24;6.05;;;3.03;;
20739;SDS011;10530;49.968;19.844;2023-06-14T15:02:27;6.47;;;3.00;;
20739;SDS011;10530;49.968;19.844;2023-06-14T15:07:30;6.80;;;3.23;;
20739;SDS011;10530;49.968;19.844;2023-06-14T15:12:34;5.85;;;2.90;;
20739;SDS011;10530;49.968;19.844;2023-06-14T15:17:37;5.97;;;2.70;;
20739;SDS011;10530;49.968;19.844;2023-06-14T15:22:40;7.45;;;2.97;;
20739;SDS011;10530;49.968;19.844;2023-06-14T15:27:43;6.32;;;2.88;;
20739;SDS011;10530;49.968;19.844;2023-06-14T15:32:46;7.20;;;2.93;;
20739;SDS011;10530;49.968;19.844;2023-06-14T15:37:50;6.40;;;2.47;;
20739;SDS011;10530;49.968;19.844;2023-06-14T15:42:53;7.00;;;3.13;;
20739;SDS011;10530;49.968;19.844;2023-06-14T15:47:56;5.38;;;2.63;;
20739;SDS011;10530;49.968;19.844;2023-06-14T15:53:00;5.45;;;2.53;;
20739;SDS011;10530;49.968;19.844;2023-06-14T15:58:02;6.50;;;2.90;;
20739;SDS011;10530;49.968;19.844;2023-06-14T16:03:06;6.28;;;2.75;;
20739;SDS011;10530;49.968;19.844;2023-06-14T16:08:09;6.67;;;2.97;;
20739;SDS011;10530;49.968;19.844;2023-06-14T16:13:12;5.30;;;2.85;;
20739;SDS011;10530;49.968;19.844;2023-06-14T16:18:14;5.43;;;2.60;;
20739;SDS011;10530;49.968;19.844;2023-06-14T16:23:17;7.07;;;2.80;;
20739;SDS011;10530;49.968;19.844;2023-06-14T16:28:20;5.97;;;2.92;;
20739;SDS011;10530;49.968;19.844;2023-06-14T16:33:23;6.43;;;2.47;;
20739;SDS011;10530;49.968;19.844;2023-06-14T16:38:26;4.97;;;2.33;;
20739;SDS011;10530;49.968;19.844;2023-06-14T16:43:30;5.40;;;2.20;;
20739;SDS011;10530;49.968;19.844;2023-06-14T16:48:33;5.33;;;2.43;;
20739;SDS011;10530;49.968;19.844;2023-06-14T16:53:36;5.32;;;2.70;;
20739;SDS011;10530;49.968;19.844;2023-06-14T16:58:39;5.90;;;2.70;;
20739;SDS011;10530;49.968;19.844;2023-06-14T17:03:42;6.13;;;2.72;;
20739;SDS011;10530;49.968;19.844;2023-06-14T17:08:46;5.43;;;2.78;;
20739;SDS011;10530;49.968;19.844;2023-06-14T17:13:51;6.30;;;2.80;;
20739;SDS011;10530;49.968;19.844;2023-06-14T17:18:54;5.53;;;2.78;;
20739;SDS011;10530;49.968;19.844;2023-06-14T17:23:56;5.57;;;2.93;;
20739;SDS011;10530;49.968;19.844;2023-06-14T17:29:00;6.00;;;2.80;;
20739;SDS011;10530;49.968;19.844;2023-06-14T17:34:03;7.60;;;2.58;;
20739;SDS011;10530;49.968;19.844;2023-06-14T17:39:06;5.07;;;2.77;;
20739;SDS011;10530;49.968;19.844;2023-06-14T17:44:11;6.13;;;2.63;;
20739;SDS011;10530;49.968;19.844;2023-06-14T17:49:14;5.07;;;2.60;;
20739;SDS011;10530;49.968;19.844;2023-06-14T17:54:17;4.85;;;2.20;;
20739;SDS011;10530;49.968;19.844;2023-06-14T17:59:20;4.95;;;2.17;;
20739;SDS011;10530;49.968;19.844;2023-06-14T18:04:23;4.50;;;2.00;;
20739;SDS011;10530;49.968;19.844;2023-06-14T18:09:26;4.97;;;2.30;;
20739;SDS011;10530;49.968;19.844;2023-06-14T18:14:29;5.67;;;2.57;;
20739;SDS011;10530;49.968;19.844;2023-06-14T18:19:32;6.80;;;3.08;;
20739;SDS011;10530;49.968;19.844;2023-06-14T18:24:36;7.82;;;3.30;;
20739;SDS011;10530;49.968;19.844;2023-06-14T18:29:39;6.87;;;3.30;;
20739;SDS011;10530;49.968;19.844;2023-06-14T18:34:42;6.90;;;3.40;;
20739;SDS011;10530;49.968;19.844;2023-06-14T18:39:45;7.33;;;3.37;;
20739;SDS011;10530;49.968;19.844;2023-06-14T18:44:48;8.50;;;4.00;;
20739;SDS011;10530;49.968;19.844;2023-06-14T18:49:51;7.38;;;4.15;;
20739;SDS011;10530;49.968;19.844;2023-06-14T18:54:54;10.03;;;3.77;;
20739;SDS011;10530;49.968;19.844;2023-06-14T18:59:57;10.75;;;5.80;;
20739;SDS011;10530;49.968;19.844;2023-06-14T19:05:00;16.67;;;7.03;;
20739;SDS011;10530;49.968;19.844;2023-06-14T19:10:07;19.20;;;9.63;;
20739;SDS011;10530;49.968;19.844;2023-06-14T19:15:10;15.52;;;6.80;;
20739;SDS011;10530;49.968;19.844;2023-06-14T19:20:13;24.87;;;9.60;;
20739;SDS011;10530;49.968;19.844;2023-06-14T19:25:16;19.75;;;8.82;;
20739;SDS011;10530;49.968;19.844;2023-06-14T19:30:20;38.47;;;15.90;;
20739;SDS011;10530;49.968;19.844;2023-06-14T19:35:22;19.60;;;8.73;;
20739;SDS011;10530;49.968;19.844;2023-06-14T19:40:26;15.77;;;7.07;;
20739;SDS011;10530;49.968;19.844;2023-06-14T19:45:29;23.37;;;9.73;;
20739;SDS011;10530;49.968;19.844;2023-06-14T19:50:34;29.20;;;12.88;;
20739;SDS011;10530;49.968;19.844;2023-06-14T19:55:37;29.03;;;11.93;;
20739;SDS011;10530;49.968;19.844;2023-06-14T20:00:40;31.40;;;13.43;;
20739;SDS011;10530;49.968;19.844;2023-06-14T20:05:43;36.13;;;13.95;;
20739;SDS011;10530;49.968;19.844;2023-06-14T20:10:46;23.70;;;9.60;;
20739;SDS011;10530;49.968;19.844;2023-06-14T20:15:49;24.02;;;9.35;;
20739;SDS011;10530;49.968;19.844;2023-06-14T20:20:52;16.37;;;7.70;;
20739;SDS011;10530;49.968;19.844;2023-06-14T20:25:56;18.23;;;7.30;;
20739;SDS011;10530;49.968;19.844;2023-06-14T20:30:59;20.58;;;7.90;;
20739;SDS011;10530;49.968;19.844;2023-06-14T20:36:02;12.47;;;6.17;;
20739;SDS011;10530;49.968;19.844;2023-06-14T20:41:05;12.10;;;5.22;;
20739;SDS011;10530;49.968;19.844;2023-06-14T20:46:08;10.20;;;4.50;;
20739;SDS011;10530;49.968;19.844;2023-06-14T20:51:11;12.50;;;5.20;;
20739;SDS011;10530;49.968;19.844;2023-06-14T20:56:14;14.07;;;5.68;;
20739;SDS011;10530;49.968;19.844;2023-06-14T21:01:17;12.47;;;4.53;;
20739;SDS011;10530;49.968;19.844;2023-06-14T21:06:20;9.50;;;4.45;;
20739;SDS011;10530;49.968;19.844;2023-06-14T21:11:23;11.67;;;5.00;;
20739;SDS011;10530;49.968;19.844;2023-06-14T21:16:26;10.90;;;4.82;;
20739;SDS011;10530;49.968;19.844;2023-06-14T21:21:29;11.15;;;5.07;;
20739;SDS011;10530;49.968;19.844;2023-06-14T21:26:32;12.10;;;5.23;;
20739;SDS011;10530;49.968;19.844;2023-06-14T21:31:36;11.98;;;5.65;;
20739;SDS011;10530;49.968;19.844;2023-06-14T21:36:39;13.20;;;5.57;;
20739;SDS011;10530;49.968;19.844;2023-06-14T21:41:41;12.30;;;5.75;;
20739;SDS011;10530;49.968;19.844;2023-06-14T21:46:44;13.38;;;5.20;;
20739;SDS011;10530;49.968;19.844;2023-06-14T21:51:47;12.73;;;5.00;;
20739;SDS011;10530;49.968;19.844;2023-06-14T21:56:50;11.63;;;5.60;;
20739;SDS011;10530;49.968;19.844;2023-06-14T22:01:53;10.60;;;4.53;;
20739;SDS011;10530;49.968;19.844;2023-06-14T22:06:55;11.60;;;5.18;;
20739;SDS011;10530;49.968;19.844;2023-06-14T22:11:58;9.98;;;4.72;;
20739;SDS011;10530;49.968;19.844;2023-06-14T22:17:03;11.60;;;5.03;;
20739;SDS011;10530;49.968;19.844;2023-06-14T22:22:08;11.68;;;5.25;;
20739;SDS011;10530;49.968;19.844;2023-06-14T22:27:11;11.17;;;4.77;;
20739;SDS011;10530;49.968;19.844;2023-06-14T22:32:14;12.45;;;4.70;;
20739;SDS011;10530;49.968;19.844;2023-06-14T22:37:17;11.32;;;5.32;;
20739;SDS011;10530;49.968;19.844;2023-06-14T22:42:21;10.43;;;4.93;;
20739;SDS011;10530;49.968;19.844;2023-06-14T22:47:25;10.77;;;5.07;;
20739;SDS011;10530;49.968;19.844;2023-06-14T22:52:28;10.57;;;5.07;;
20739;SDS011;10530;49.968;19.844;2023-06-14T22:57:37;9.50;;;4.60;;
20739;SDS011;10530;49.968;19.844;2023-06-14T23:02:47;12.57;;;4.97;;
20739;SDS011;10530;49.968;19.844;2023-06-14T23:07:50;13.80;;;5.50;;
20739;SDS011;10530;49.968;19.844;2023-06-14T23:12:54;12.43;;;5.55;;
20739;SDS011;10530;49.968;19.844;2023-06-14T23:17:57;10.13;;;4.80;;
20739;SDS011;10530;49.968;19.844;2023-06-14T23:23:00;11.40;;;4.88;;
20739;SDS011;10530;49.968;19.844;2023-06-14T23:28:05;11.88;;;5.47;;
20739;SDS011;10530;49.968;19.844;2023-06-14T23:33:09;14.07;;;4.93;;
20739;SDS011;10530;49.968;19.844;2023-06-14T23:38:12;11.77;;;5.60;;
20739;SDS011;10530;49.968;19.844;2023-06-14T23:43:14;12.57;;;5.57;;
20739;SDS011;10530;49.968;19.844;2023-06-14T23:48:24;13.80;;;5.53;;
20739;SDS011;10530;49.968;19.844;2023-06-14T23:53:28;11.85;;;5.45;;
20739;SDS011;10530;49.968;19.844;2023-06-14T23:58:31;12.67;;;5.50;;
